Time;durP1;ratioP1;P1;durP2;ratioP2;P2;SDS_P1;SDS_P2;PMS_P1;PMS_P2;Temp;Humidity;BMP_temperature;BMP_pressure;BME280_temperature;BME280_humidity;BME280_pressure;Samples;Min_cycle;Max_cycle;Signal;HPM_P1;HPM_P2
2020/12/21 00:01:32;;;;;;;24.83;19.05;;;;;;;;;;6226726;28;20050;-73
2020/12/21 00:04:33;;;;;;;25.17;18.70;;;;;;;;;;6233509;28;20048;-73
2020/12/21 00:07:35;;;;;;;27.25;20.27;;;;;;;;;;6228550;28;20041;-74
2020/12/21 00:10:36;;;;;;;24.55;18.70;;;;;;;;;;6226705;28;20444;-74
2020/12/21 00:13:42;;;;;;;24.75;18.65;;;;;;;;;;6231870;28;20056;-71
2020/12/21 00:16:44;;;;;;;29.17;19.60;;;;;;;;;;6231307;28;20042;-74
2020/12/21 00:19:45;;;;;;;24.77;18.77;;;;;;;;;;6228253;28;20045;-75
2020/12/21 00:22:47;;;;;;;27.25;19.48;;;;;;;;;;6230370;28;20052;-74
2020/12/21 00:25:49;;;;;;;24.88;19.58;;;;;;;;;;6232057;28;20091;-74
2020/12/21 00:28:50;;;;;;;25.52;19.60;;;;;;;;;;6231130;28;20543;-73
2020/12/21 00:31:51;;;;;;;41.92;28.90;;;;;;;;;;6225014;28;20133;-72
2020/12/21 00:34:52;;;;;;;71.25;44.55;;;;;;;;;;6226000;28;20045;-72
2020/12/21 00:37:54;;;;;;;49.90;31.48;;;;;;;;;;6216873;28;20052;-73
2020/12/21 00:40:56;;;;;;;52.28;32.35;;;;;;;;;;6224266;28;20077;-72
2020/12/21 00:43:57;;;;;;;41.20;28.10;;;;;;;;;;6184196;28;20046;-75
2020/12/21 00:46:58;;;;;;;26.88;20.65;;;;;;;;;;6213743;28;20077;-72
2020/12/21 00:49:59;;;;;;;25.25;20.20;;;;;;;;;;6231736;28;20507;-74
2020/12/21 00:53:01;;;;;;;28.10;21.75;;;;;;;;;;6233377;28;20140;-74
2020/12/21 00:56:03;;;;;;;32.58;26.00;;;;;;;;;;6231091;28;20048;-74
2020/12/21 00:59:04;;;;;;;30.60;24.30;;;;;;;;;;6214314;28;20056;-74
2020/12/21 01:02:06;;;;;;;32.03;25.42;;;;;;;;;;6227509;28;20063;-75
2020/12/21 01:05:07;;;;;;;34.17;26.25;;;;;;;;;;6239929;28;20077;-74
2020/12/21 01:08:09;;;;;;;37.28;28.77;;;;;;;;;;6239323;28;20737;-74
2020/12/21 01:11:10;;;;;;;37.90;27.85;;;;;;;;;;6233250;28;20176;-74
2020/12/21 01:14:12;;;;;;;41.45;29.63;;;;;;;;;;6226842;28;20514;-74
2020/12/21 01:17:13;;;;;;;41.20;29.67;;;;;;;;;;6209740;28;20050;-74
2020/12/21 01:20:14;;;;;;;40.35;29.65;;;;;;;;;;6200356;28;20133;-73
2020/12/21 01:23:16;;;;;;;41.22;29.95;;;;;;;;;;6200107;28;20056;-74
2020/12/21 01:26:17;;;;;;;39.25;28.73;;;;;;;;;;6199491;28;20060;-74
2020/12/21 01:29:18;;;;;;;41.67;28.92;;;;;;;;;;6196330;28;20046;-74
2020/12/21 01:32:19;;;;;;;41.63;30.70;;;;;;;;;;6210041;28;20144;-74
2020/12/21 01:35:20;;;;;;;47.00;29.65;;;;;;;;;;6217691;28;21051;-74
2020/12/21 01:38:22;;;;;;;42.75;29.50;;;;;;;;;;6209279;28;20042;-73
2020/12/21 01:41:23;;;;;;;44.65;29.75;;;;;;;;;;6208683;28;20050;-73
2020/12/21 01:44:24;;;;;;;43.90;30.00;;;;;;;;;;6198478;28;20046;-74
2020/12/21 01:47:25;;;;;;;44.15;30.63;;;;;;;;;;6208903;28;20392;-74
2020/12/21 01:50:26;;;;;;;46.13;30.95;;;;;;;;;;6211035;28;20133;-74
2020/12/21 01:53:28;;;;;;;45.55;30.17;;;;;;;;;;6204112;28;20054;-75
2020/12/21 01:56:29;;;;;;;47.00;30.17;;;;;;;;;;6208810;28;20716;-74
2020/12/21 01:59:30;;;;;;;45.33;30.52;;;;;;;;;;6208101;28;20068;-74
2020/12/21 02:02:32;;;;;;;44.42;29.88;;;;;;;;;;6208009;28;20049;-75
2020/12/21 02:05:33;;;;;;;40.65;27.70;;;;;;;;;;6212330;28;20052;-74
2020/12/21 02:08:34;;;;;;;42.33;29.48;;;;;;;;;;6200982;28;20516;-74
2020/12/21 02:11:38;;;;;;;39.90;28.10;;;;;;;;;;6200343;28;20124;-74
2020/12/21 02:14:39;;;;;;;42.38;28.65;;;;;;;;;;6215189;28;20056;-74
2020/12/21 02:17:40;;;;;;;42.38;28.33;;;;;;;;;;6209591;28;20379;-74
2020/12/21 02:20:42;;;;;;;41.53;27.90;;;;;;;;;;6206634;28;20057;-74
2020/12/21 02:23:43;;;;;;;41.45;27.15;;;;;;;;;;6207155;28;20699;-73
2020/12/21 02:26:44;;;;;;;41.30;27.50;;;;;;;;;;6202466;28;20046;-74
2020/12/21 02:29:47;;;;;;;43.55;28.23;;;;;;;;;;6214232;28;20069;-71
2020/12/21 02:32:48;;;;;;;45.00;29.15;;;;;;;;;;6207777;28;20052;-74
2020/12/21 02:35:50;;;;;;;42.90;27.67;;;;;;;;;;6215025;28;20046;-74
2020/12/21 02:38:51;;;;;;;44.03;29.00;;;;;;;;;;6209399;28;20042;-74
2020/12/21 02:41:53;;;;;;;46.47;28.92;;;;;;;;;;6209656;28;20726;-74
2020/12/21 02:44:54;;;;;;;43.58;28.67;;;;;;;;;;6209189;28;20069;-74
2020/12/21 02:47:55;;;;;;;46.58;28.60;;;;;;;;;;6202738;28;20464;-74
2020/12/21 02:50:57;;;;;;;43.63;28.15;;;;;;;;;;6197722;28;20202;-74
2020/12/21 02:53:58;;;;;;;48.75;29.10;;;;;;;;;;6211908;28;20038;-76
2020/12/21 02:56:59;;;;;;;43.95;27.20;;;;;;;;;;6221404;28;20452;-74
2020/12/21 03:00:00;;;;;;;43.22;27.63;;;;;;;;;;6216742;28;20058;-74
2020/12/21 03:03:01;;;;;;;46.08;27.73;;;;;;;;;;6218358;28;20054;-73
2020/12/21 03:06:03;;;;;;;45.97;28.60;;;;;;;;;;6223716;28;20041;-74
2020/12/21 03:09:04;;;;;;;45.17;26.92;;;;;;;;;;6210670;28;20149;-74
2020/12/21 03:12:05;;;;;;;46.72;28.40;;;;;;;;;;6213560;28;20046;-72
2020/12/21 03:15:06;;;;;;;42.53;26.65;;;;;;;;;;6208437;28;20058;-73
2020/12/21 03:18:07;;;;;;;45.00;28.23;;;;;;;;;;6208220;28;20529;-73
2020/12/21 03:21:09;;;;;;;47.65;28.00;;;;;;;;;;6233185;28;20042;-72
2020/12/21 03:24:10;;;;;;;42.35;27.10;;;;;;;;;;6233020;28;20045;-73
2020/12/21 03:27:11;;;;;;;43.00;27.70;;;;;;;;;;6235347;28;20052;-72
2020/12/21 03:30:13;;;;;;;40.42;26.05;;;;;;;;;;6223217;28;20536;-75
2020/12/21 03:33:14;;;;;;;40.78;25.83;;;;;;;;;;6231081;28;20136;-74
2020/12/21 03:36:16;;;;;;;41.13;25.85;;;;;;;;;;6231608;28;20076;-74
2020/12/21 03:39:17;;;;;;;43.78;27.95;;;;;;;;;;6222153;28;20084;-72
2020/12/21 03:42:18;;;;;;;42.60;27.33;;;;;;;;;;6228093;28;20124;-73
2020/12/21 03:45:19;;;;;;;45.03;28.15;;;;;;;;;;6227716;28;20042;-75
2020/12/21 03:48:20;;;;;;;42.50;27.17;;;;;;;;;;6232468;28;20424;-74
2020/12/21 03:51:22;;;;;;;41.85;25.73;;;;;;;;;;6228656;28;20058;-74
2020/12/21 03:54:23;;;;;;;40.22;25.60;;;;;;;;;;6202318;28;20046;-73
2020/12/21 03:57:24;;;;;;;43.08;26.98;;;;;;;;;;6218820;28;20140;-74
2020/12/21 04:00:25;;;;;;;40.20;25.88;;;;;;;;;;6235559;28;20513;-73
2020/12/21 04:03:27;;;;;;;40.17;25.02;;;;;;;;;;6225498;28;20059;-74
2020/12/21 04:06:29;;;;;;;37.83;25.05;;;;;;;;;;6231419;28;20052;-73
2020/12/21 04:09:30;;;;;;;38.80;24.92;;;;;;;;;;6230145;28;20053;-74
2020/12/21 04:12:32;;;;;;;40.13;25.52;;;;;;;;;;6231421;28;20068;-74
2020/12/21 04:15:33;;;;;;;39.83;25.95;;;;;;;;;;6233200;28;20060;-75
2020/12/21 04:18:34;;;;;;;43.30;26.35;;;;;;;;;;6228330;28;20055;-74
2020/12/21 04:21:35;;;;;;;40.22;26.45;;;;;;;;;;6229312;28;20052;-74
2020/12/21 04:24:37;;;;;;;41.50;26.92;;;;;;;;;;6231907;28;20185;-73
2020/12/21 04:27:38;;;;;;;43.78;26.63;;;;;;;;;;6237156;28;20055;-74
2020/12/21 04:30:39;;;;;;;42.83;27.08;;;;;;;;;;6230636;28;20077;-74
2020/12/21 04:33:40;;;;;;;41.83;26.27;;;;;;;;;;6230554;28;20083;-74
2020/12/21 04:36:42;;;;;;;38.40;24.95;;;;;;;;;;6236269;28;20140;-74
2020/12/21 04:39:43;;;;;;;42.80;25.92;;;;;;;;;;6229022;28;20091;-73
2020/12/21 04:42:47;;;;;;;43.08;25.88;;;;;;;;;;6227262;28;20073;-74
2020/12/21 04:45:50;;;;;;;40.78;25.92;;;;;;;;;;6230508;28;20052;-73
2020/12/21 04:48:51;;;;;;;40.13;25.38;;;;;;;;;;6229770;28;20048;-73
2020/12/21 04:51:53;;;;;;;41.67;25.95;;;;;;;;;;6232519;28;20044;-73
2020/12/21 04:54:54;;;;;;;42.80;27.15;;;;;;;;;;6233944;28;20644;-73
2020/12/21 04:57:57;;;;;;;43.20;27.08;;;;;;;;;;6235350;28;20048;-73
2020/12/21 05:00:58;;;;;;;45.42;28.15;;;;;;;;;;6234369;28;20509;-73
2020/12/21 05:03:59;;;;;;;44.30;27.90;;;;;;;;;;6225256;28;20433;-73
2020/12/21 05:07:01;;;;;;;43.20;27.85;;;;;;;;;;6203543;28;20050;-73
2020/12/21 05:10:06;;;;;;;43.60;28.35;;;;;;;;;;6186210;28;20046;-75
2020/12/21 05:13:08;;;;;;;44.33;27.48;;;;;;;;;;6227181;28;20046;-74
2020/12/21 05:16:09;;;;;;;45.72;27.25;;;;;;;;;;6242535;28;20400;-74
2020/12/21 05:19:21;;;;;;;45.60;28.15;;;;;;;;;;6243451;28;20049;-73
2020/12/21 05:22:23;;;;;;;44.67;27.65;;;;;;;;;;6246124;28;20037;-74
2020/12/21 05:25:24;;;;;;;43.30;26.58;;;;;;;;;;6232949;28;20128;-74
2020/12/21 05:28:27;;;;;;;47.33;26.77;;;;;;;;;;6231077;28;20049;-75
2020/12/21 05:31:28;;;;;;;41.78;26.10;;;;;;;;;;6230652;28;20076;-74
2020/12/21 05:34:30;;;;;;;41.60;25.13;;;;;;;;;;6227242;28;20053;-74
2020/12/21 05:37:32;;;;;;;46.90;27.40;;;;;;;;;;6231928;28;20045;-74
2020/12/21 05:40:33;;;;;;;43.53;26.52;;;;;;;;;;6231202;28;20041;-74
2020/12/21 05:43:36;;;;;;;43.83;26.92;;;;;;;;;;6235097;28;20049;-74
2020/12/21 05:46:37;;;;;;;45.22;27.85;;;;;;;;;;6233537;28;20045;-75
2020/12/21 05:49:43;;;;;;;46.33;27.80;;;;;;;;;;6234780;28;20080;-74
2020/12/21 05:52:52;;;;;;;42.42;26.58;;;;;;;;;;6229502;28;20053;-74
2020/12/21 05:55:53;;;;;;;50.53;29.67;;;;;;;;;;6229615;28;20106;-74
2020/12/21 05:58:55;;;;;;;52.15;29.38;;;;;;;;;;6238902;28;21748;-74
2020/12/21 06:01:59;;;;;;;47.72;27.92;;;;;;;;;;6232640;28;20057;-74
2020/12/21 06:05:03;;;;;;;54.90;29.80;;;;;;;;;;6232918;28;20069;-74
2020/12/21 06:08:06;;;;;;;51.90;29.20;;;;;;;;;;6231615;28;20128;-74
2020/12/21 06:11:25;;;;;;;52.60;28.85;;;;;;;;;;6230481;28;20597;-73
2020/12/21 06:14:26;;;;;;;48.25;26.70;;;;;;;;;;6232059;28;20195;-74
2020/12/21 06:17:29;;;;;;;48.38;27.50;;;;;;;;;;6226075;28;20053;-73
2020/12/21 06:20:30;;;;;;;47.83;27.20;;;;;;;;;;6225038;28;20474;-75
2020/12/21 06:23:37;;;;;;;49.10;25.85;;;;;;;;;;6219413;28;20052;-74
2020/12/21 06:26:38;;;;;;;46.58;26.70;;;;;;;;;;6236114;28;20052;-74
2020/12/21 06:29:39;;;;;;;50.25;27.77;;;;;;;;;;6234907;28;20071;-74
2020/12/21 06:32:40;;;;;;;45.38;26.42;;;;;;;;;;6233207;28;20531;-74
2020/12/21 06:35:43;;;;;;;48.85;29.33;;;;;;;;;;6231403;28;20698;-73
2020/12/21 06:38:46;;;;;;;52.42;27.88;;;;;;;;;;6231353;28;20045;-74
2020/12/21 06:41:47;;;;;;;48.50;28.10;;;;;;;;;;6231003;28;20046;-73
2020/12/21 06:44:49;;;;;;;48.85;28.23;;;;;;;;;;6233954;28;20071;-72
2020/12/21 06:47:50;;;;;;;46.97;26.85;;;;;;;;;;6226593;28;20450;-74
2020/12/21 06:50:51;;;;;;;50.38;26.98;;;;;;;;;;6224148;28;20050;-74
2020/12/21 06:53:58;;;;;;;49.58;27.48;;;;;;;;;;6230434;28;20046;-75
2020/12/21 06:56:59;;;;;;;50.92;29.35;;;;;;;;;;6232209;28;20451;-74
2020/12/21 07:00:00;;;;;;;50.75;28.45;;;;;;;;;;6239004;28;20037;-74
2020/12/21 07:03:01;;;;;;;52.88;28.08;;;;;;;;;;6226279;28;20413;-75
2020/12/21 07:06:02;;;;;;;54.72;29.48;;;;;;;;;;6223777;28;20126;-73
2020/12/21 07:09:04;;;;;;;49.65;27.52;;;;;;;;;;6208006;28;20050;-74
2020/12/21 07:12:07;;;;;;;52.92;27.20;;;;;;;;;;6209957;28;20045;-74
2020/12/21 07:15:08;;;;;;;49.05;27.73;;;;;;;;;;6229257;28;20041;-73
2020/12/21 07:18:10;;;;;;;50.20;28.25;;;;;;;;;;6230835;28;20587;-73
2020/12/21 07:21:12;;;;;;;48.65;27.25;;;;;;;;;;6228411;28;20071;-74
2020/12/21 07:24:14;;;;;;;51.70;28.88;;;;;;;;;;6229340;28;20041;-74
2020/12/21 07:27:15;;;;;;;49.83;29.65;;;;;;;;;;6229243;28;20037;-74
2020/12/21 07:30:16;;;;;;;47.38;27.67;;;;;;;;;;6217094;28;20665;-74
2020/12/21 07:33:17;;;;;;;53.08;29.20;;;;;;;;;;6202595;28;20042;-75
2020/12/21 07:36:20;;;;;;;49.92;29.35;;;;;;;;;;6197902;28;20060;-74
2020/12/21 07:39:22;;;;;;;46.42;26.67;;;;;;;;;;6208978;28;20049;-74
2020/12/21 07:42:23;;;;;;;50.08;28.40;;;;;;;;;;6207998;28;20137;-74
2020/12/21 07:45:25;;;;;;;50.90;28.42;;;;;;;;;;6206072;28;20049;-74
2020/12/21 07:48:26;;;;;;;49.75;27.42;;;;;;;;;;6212604;28;20581;-75
2020/12/21 07:51:27;;;;;;;49.65;27.17;;;;;;;;;;6212426;28;20112;-74
2020/12/21 07:54:32;;;;;;;51.15;27.88;;;;;;;;;;6205556;28;20053;-75
2020/12/21 07:57:33;;;;;;;48.80;26.55;;;;;;;;;;6201992;28;20107;-73
2020/12/21 08:00:34;;;;;;;50.15;28.05;;;;;;;;;;6198111;28;20091;-75
2020/12/21 08:03:38;;;;;;;47.63;28.02;;;;;;;;;;6202359;28;20444;-74
2020/12/21 08:06:39;;;;;;;43.45;25.17;;;;;;;;;;6205198;28;20050;-74
2020/12/21 08:09:44;;;;;;;48.75;26.27;;;;;;;;;;6202502;28;20087;-74
2020/12/21 08:12:45;;;;;;;46.92;24.48;;;;;;;;;;6200067;28;20141;-74
2020/12/21 08:15:46;;;;;;;51.90;27.17;;;;;;;;;;6202557;28;20136;-74
2020/12/21 08:18:50;;;;;;;50.92;27.67;;;;;;;;;;6200589;28;20046;-74
2020/12/21 08:21:51;;;;;;;51.17;27.00;;;;;;;;;;6200772;28;20128;-75
2020/12/21 08:25:00;;;;;;;48.92;28.08;;;;;;;;;;6217595;28;20401;-74
2020/12/21 08:28:01;;;;;;;47.70;27.45;;;;;;;;;;5879199;28;10000303;-74
2020/12/21 08:31:07;;;;;;;50.40;27.08;;;;;;;;;;6235791;28;20049;-74
2020/12/21 08:34:08;;;;;;;48.25;27.50;;;;;;;;;;6215901;28;20180;-74
2020/12/21 08:37:10;;;;;;;51.38;28.02;;;;;;;;;;6222371;28;20057;-75
2020/12/21 08:40:12;;;;;;;51.63;28.48;;;;;;;;;;6220389;28;20121;-75
2020/12/21 08:43:13;;;;;;;54.17;29.30;;;;;;;;;;6224698;28;20079;-75
2020/12/21 08:46:14;;;;;;;53.65;28.58;;;;;;;;;;6232092;28;20079;-74
2020/12/21 08:49:15;;;;;;;54.95;29.98;;;;;;;;;;6223675;28;20068;-75
2020/12/21 08:52:16;;;;;;;52.50;28.52;;;;;;;;;;6223555;28;20061;-77
2020/12/21 08:55:18;;;;;;;49.13;27.85;;;;;;;;;;6227598;28;20060;-74
2020/12/21 08:58:19;;;;;;;53.97;29.80;;;;;;;;;;6230613;28;20041;-72
2020/12/21 09:01:20;;;;;;;47.15;27.73;;;;;;;;;;6223964;28;20049;-75
2020/12/21 09:04:22;;;;;;;52.60;28.67;;;;;;;;;;6227505;28;20620;-75
2020/12/21 09:07:23;;;;;;;49.20;28.25;;;;;;;;;;6224862;28;20064;-76
2020/12/21 09:10:24;;;;;;;50.03;27.52;;;;;;;;;;6227441;28;20088;-76
2020/12/21 09:13:25;;;;;;;52.92;28.80;;;;;;;;;;6224438;28;20061;-74
2020/12/21 09:16:27;;;;;;;51.58;27.58;;;;;;;;;;6218277;28;20526;-75
2020/12/21 09:19:29;;;;;;;46.90;27.58;;;;;;;;;;6225409;28;20059;-75
2020/12/21 09:22:30;;;;;;;46.80;28.25;;;;;;;;;;6224233;28;20057;-75
2020/12/21 09:25:31;;;;;;;47.88;28.25;;;;;;;;;;6227180;28;20100;-74
2020/12/21 09:28:32;;;;;;;48.25;28.05;;;;;;;;;;6227048;28;20060;-73
2020/12/21 09:31:33;;;;;;;51.17;29.25;;;;;;;;;;6227544;28;20048;-73
2020/12/21 09:34:34;;;;;;;52.28;28.10;;;;;;;;;;6227472;28;20517;-73
2020/12/21 09:37:35;;;;;;;46.22;27.83;;;;;;;;;;6227014;28;20049;-74
2020/12/21 09:40:38;;;;;;;49.35;27.92;;;;;;;;;;6226747;28;20057;-75
2020/12/21 09:43:40;;;;;;;52.97;29.73;;;;;;;;;;6220567;28;20448;-74
2020/12/21 09:46:41;;;;;;;49.47;28.55;;;;;;;;;;5883516;28;9999992;-74
2020/12/21 09:49:42;;;;;;;57.28;28.55;;;;;;;;;;6221892;28;20400;-75
2020/12/21 09:52:43;;;;;;;48.75;27.83;;;;;;;;;;6228328;28;20049;-74
2020/12/21 09:55:45;;;;;;;49.13;27.63;;;;;;;;;;6223379;28;20058;-74
2020/12/21 09:58:46;;;;;;;46.88;27.88;;;;;;;;;;6232652;28;20628;-74
2020/12/21 10:01:47;;;;;;;50.78;28.90;;;;;;;;;;6227689;28;20152;-75
2020/12/21 10:04:48;;;;;;;46.78;26.85;;;;;;;;;;6227381;28;20058;-75
2020/12/21 10:07:49;;;;;;;43.05;26.88;;;;;;;;;;5532733;28;10000813;-74
2020/12/21 10:10:52;;;;;;;43.20;25.15;;;;;;;;;;6226421;28;20046;-75
2020/12/21 10:13:53;;;;;;;50.10;27.33;;;;;;;;;;6222631;28;20254;-74
2020/12/21 10:16:54;;;;;;;42.28;25.50;;;;;;;;;;6224321;28;20065;-73
2020/12/21 10:19:56;;;;;;;39.35;24.35;;;;;;;;;;6233922;28;20192;-77
2020/12/21 10:22:57;;;;;;;43.38;25.13;;;;;;;;;;6231999;28;20077;-74
2020/12/21 10:26:01;;;;;;;46.42;26.48;;;;;;;;;;6226660;28;20045;-74
2020/12/21 10:29:02;;;;;;;45.28;25.60;;;;;;;;;;6233529;28;20059;-74
2020/12/21 10:32:03;;;;;;;41.30;25.45;;;;;;;;;;6212497;28;20538;-76
2020/12/21 10:35:05;;;;;;;43.08;25.20;;;;;;;;;;6230142;28;20060;-75
2020/12/21 10:38:06;;;;;;;36.00;22.73;;;;;;;;;;6232909;28;20486;-73
2020/12/21 10:41:08;;;;;;;32.30;20.67;;;;;;;;;;6243217;28;20125;-75
2020/12/21 10:44:09;;;;;;;35.33;23.25;;;;;;;;;;6233705;28;20041;-75
2020/12/21 10:47:10;;;;;;;41.38;24.17;;;;;;;;;;6234814;28;20071;-75
2020/12/21 10:50:11;;;;;;;39.20;23.90;;;;;;;;;;6215194;28;20106;-75
2020/12/21 10:53:13;;;;;;;38.28;23.48;;;;;;;;;;6238480;28;20157;-74
2020/12/21 10:56:15;;;;;;;38.63;23.52;;;;;;;;;;6227072;28;20100;-74
2020/12/21 10:59:16;;;;;;;37.47;22.60;;;;;;;;;;6232899;28;20041;-75
2020/12/21 11:02:17;;;;;;;34.85;22.73;;;;;;;;;;6222440;28;20076;-76
2020/12/21 11:05:18;;;;;;;37.80;23.40;;;;;;;;;;6217677;28;22189;-76
2020/12/21 11:08:19;;;;;;;36.78;23.50;;;;;;;;;;6222007;28;20055;-76
2020/12/21 11:11:27;;;;;;;37.50;24.05;;;;;;;;;;6224108;28;20107;-77
2020/12/21 11:14:28;;;;;;;40.47;25.98;;;;;;;;;;6233502;28;20465;-76
2020/12/21 11:17:29;;;;;;;42.50;26.80;;;;;;;;;;6235025;28;20137;-76
2020/12/21 11:20:30;;;;;;;40.58;25.98;;;;;;;;;;6236226;28;20049;-75
2020/12/21 11:23:31;;;;;;;37.03;24.02;;;;;;;;;;6221141;28;20096;-76
2020/12/21 11:26:33;;;;;;;40.50;25.90;;;;;;;;;;6229307;28;20494;-75
2020/12/21 11:29:34;;;;;;;44.05;27.35;;;;;;;;;;6235074;28;20045;-76
2020/12/21 11:32:37;;;;;;;40.45;26.42;;;;;;;;;;6232510;28;20136;-75
2020/12/21 11:35:38;;;;;;;42.03;26.98;;;;;;;;;;6237467;28;20087;-76
2020/12/21 11:38:39;;;;;;;55.83;34.03;;;;;;;;;;6243787;28;20041;-76
2020/12/21 11:41:41;;;;;;;61.60;36.50;;;;;;;;;;6230723;28;20485;-75
2020/12/21 11:44:42;;;;;;;63.38;39.13;;;;;;;;;;6224028;28;20072;-75
2020/12/21 11:47:43;;;;;;;62.67;37.35;;;;;;;;;;6230198;28;20664;-76
2020/12/21 11:50:44;;;;;;;61.03;37.88;;;;;;;;;;6222797;28;20146;-75
2020/12/21 11:53:45;;;;;;;60.47;37.70;;;;;;;;;;6234535;28;20058;-75
2020/12/21 11:56:47;;;;;;;59.90;37.72;;;;;;;;;;6227401;28;20511;-75
2020/12/21 11:59:48;;;;;;;65.20;39.90;;;;;;;;;;6226322;28;20572;-75
2020/12/21 12:02:49;;;;;;;67.63;42.35;;;;;;;;;;6222107;28;20056;-75
2020/12/21 12:05:50;;;;;;;62.78;40.38;;;;;;;;;;6227684;28;20131;-74
2020/12/21 12:08:53;;;;;;;62.78;38.75;;;;;;;;;;6230946;28;20085;-74
2020/12/21 12:11:55;;;;;;;68.18;40.15;;;;;;;;;;6216751;28;20065;-75
2020/12/21 12:14:56;;;;;;;68.68;40.85;;;;;;;;;;6224713;28;20045;-75
2020/12/21 12:17:57;;;;;;;67.03;42.17;;;;;;;;;;6219740;28;20038;-75
2020/12/21 12:20:58;;;;;;;64.43;39.05;;;;;;;;;;6220672;28;20110;-75
2020/12/21 12:23:59;;;;;;;59.58;38.20;;;;;;;;;;6223577;28;21546;-76
2020/12/21 12:27:01;;;;;;;64.72;39.47;;;;;;;;;;6221125;28;20103;-75
2020/12/21 12:30:03;;;;;;;63.40;39.60;;;;;;;;;;6224443;28;20084;-75
2020/12/21 12:33:04;;;;;;;62.55;39.50;;;;;;;;;;6226339;28;20055;-75
2020/12/21 12:36:05;;;;;;;57.10;36.40;;;;;;;;;;6222961;28;20053;-76
2020/12/21 12:39:06;;;;;;;62.20;39.58;;;;;;;;;;6231783;28;20725;-75
2020/12/21 12:42:10;;;;;;;61.22;39.22;;;;;;;;;;6225045;28;20489;-75
2020/12/21 12:45:11;;;;;;;64.60;38.38;;;;;;;;;;6226448;28;20125;-75
2020/12/21 12:48:19;;;;;;;62.05;39.42;;;;;;;;;;5717959;28;10001276;-75
2020/12/21 12:51:20;;;;;;;68.03;40.33;;;;;;;;;;5886813;28;9999735;-75
2020/12/21 12:54:21;;;;;;;64.57;39.15;;;;;;;;;;6226317;28;20057;-75
2020/12/21 12:57:23;;;;;;;69.80;43.20;;;;;;;;;;6224124;28;20049;-75
2020/12/21 13:00:24;;;;;;;74.55;45.50;;;;;;;;;;6235395;28;20049;-75
2020/12/21 13:03:25;;;;;;;76.80;44.72;;;;;;;;;;6221691;28;20046;-75
2020/12/21 13:06:26;;;;;;;77.47;46.17;;;;;;;;;;6220285;28;20067;-75
2020/12/21 13:09:27;;;;;;;76.97;44.17;;;;;;;;;;6224275;28;20059;-74
2020/12/21 13:12:29;;;;;;;86.03;51.97;;;;;;;;;;6224717;28;20053;-74
2020/12/21 13:15:31;;;;;;;74.20;42.40;;;;;;;;;;6223699;28;20038;-74
2020/12/21 13:18:32;;;;;;;71.43;44.40;;;;;;;;;;6238243;28;20087;-73
2020/12/21 13:21:33;;;;;;;74.63;44.90;;;;;;;;;;6219927;28;20041;-73
2020/12/21 13:24:34;;;;;;;80.50;44.42;;;;;;;;;;6221275;28;20128;-73
2020/12/21 13:27:36;;;;;;;78.15;46.47;;;;;;;;;;6232794;28;20080;-74
2020/12/21 13:30:37;;;;;;;79.07;44.83;;;;;;;;;;6234292;28;20042;-74
2020/12/21 13:33:38;;;;;;;77.80;45.60;;;;;;;;;;6229805;28;20176;-74
2020/12/21 13:36:39;;;;;;;78.15;46.15;;;;;;;;;;6235416;28;22331;-74
2020/12/21 13:39:40;;;;;;;81.80;47.42;;;;;;;;;;6230511;28;20869;-74
2020/12/21 13:42:42;;;;;;;79.65;47.58;;;;;;;;;;6220225;28;20107;-74
2020/12/21 13:45:43;;;;;;;81.03;48.28;;;;;;;;;;6232462;28;20110;-74
2020/12/21 13:48:44;;;;;;;71.60;43.38;;;;;;;;;;6235530;28;20046;-74
2020/12/21 13:51:45;;;;;;;71.95;42.92;;;;;;;;;;6230933;28;20208;-75
2020/12/21 13:54:46;;;;;;;66.18;40.40;;;;;;;;;;6232503;28;20140;-74
2020/12/21 13:57:48;;;;;;;67.60;39.97;;;;;;;;;;6232602;28;20045;-74
2020/12/21 14:00:49;;;;;;;66.70;38.83;;;;;;;;;;6238903;28;20121;-74
2020/12/21 14:03:50;;;;;;;62.55;39.83;;;;;;;;;;6233959;28;20107;-74
2020/12/21 14:06:53;;;;;;;75.43;43.97;;;;;;;;;;6225033;28;20597;-75
2020/12/21 14:09:54;;;;;;;87.13;51.80;;;;;;;;;;6234381;28;20126;-73
2020/12/21 14:12:56;;;;;;;78.53;46.67;;;;;;;;;;6232814;28;20491;-74
2020/12/21 14:15:57;;;;;;;84.35;48.00;;;;;;;;;;6225856;28;20489;-72
2020/12/21 14:18:58;;;;;;;90.05;50.13;;;;;;;;;;6225476;28;20042;-72
2020/12/21 14:21:59;;;;;;;98.47;52.15;;;;;;;;;;6227688;28;20060;-72
2020/12/21 14:25:00;;;;;;;93.32;50.78;;;;;;;;;;6226773;28;20046;-74
2020/12/21 14:28:02;;;;;;;96.75;52.28;;;;;;;;;;6229677;28;20094;-73
2020/12/21 14:31:03;;;;;;;94.97;51.80;;;;;;;;;;6223262;28;20049;-74
2020/12/21 14:34:06;;;;;;;98.25;53.60;;;;;;;;;;6222892;28;20065;-74
2020/12/21 14:37:07;;;;;;;91.35;50.38;;;;;;;;;;6225000;28;20401;-74
2020/12/21 14:40:08;;;;;;;99.75;57.00;;;;;;;;;;6224185;28;20512;-74
2020/12/21 14:43:10;;;;;;;100.07;52.20;;;;;;;;;;6232188;28;20061;-75
2020/12/21 14:46:14;;;;;;;93.93;53.17;;;;;;;;;;6230768;28;20052;-75
2020/12/21 14:49:15;;;;;;;95.05;52.65;;;;;;;;;;6223522;28;20049;-74
2020/12/21 14:52:16;;;;;;;89.97;52.63;;;;;;;;;;6223734;28;20056;-74
2020/12/21 14:55:17;;;;;;;85.97;49.47;;;;;;;;;;6228433;28;20061;-74
2020/12/21 14:58:19;;;;;;;93.97;51.67;;;;;;;;;;6205307;28;20041;-74
2020/12/21 15:01:20;;;;;;;85.82;49.67;;;;;;;;;;6229750;28;20057;-74
2020/12/21 15:04:21;;;;;;;89.88;50.97;;;;;;;;;;6232311;28;20045;-74
2020/12/21 15:07:22;;;;;;;86.30;49.22;;;;;;;;;;6239663;28;20760;-75
2020/12/21 15:10:23;;;;;;;87.47;50.05;;;;;;;;;;6238016;28;20429;-74
2020/12/21 15:13:25;;;;;;;85.43;49.22;;;;;;;;;;6228087;28;20490;-74
2020/12/21 15:16:26;;;;;;;82.43;46.75;;;;;;;;;;6230462;28;20066;-74
2020/12/21 15:19:27;;;;;;;86.55;47.97;;;;;;;;;;6239178;28;20136;-75
2020/12/21 15:22:28;;;;;;;86.28;49.28;;;;;;;;;;6235782;28;20085;-75
2020/12/21 15:25:30;;;;;;;87.97;51.38;;;;;;;;;;6226000;28;20431;-75
2020/12/21 15:28:32;;;;;;;89.65;54.03;;;;;;;;;;6234562;28;20136;-74
2020/12/21 15:31:33;;;;;;;91.57;50.35;;;;;;;;;;6229722;28;20523;-74
2020/12/21 15:34:34;;;;;;;85.68;50.22;;;;;;;;;;6224959;28;20493;-74
2020/12/21 15:37:35;;;;;;;89.95;51.92;;;;;;;;;;6231645;28;20053;-73
2020/12/21 15:40:36;;;;;;;86.55;48.40;;;;;;;;;;6231173;28;20051;-72
2020/12/21 15:43:39;;;;;;;79.50;47.63;;;;;;;;;;6244252;28;20053;-72
2020/12/21 15:46:40;;;;;;;81.22;49.42;;;;;;;;;;6238328;28;20479;-74
2020/12/21 15:49:41;;;;;;;85.95;50.95;;;;;;;;;;6243108;28;20085;-74
2020/12/21 15:52:43;;;;;;;85.55;53.13;;;;;;;;;;6226716;28;20742;-74
2020/12/21 15:55:44;;;;;;;83.97;50.38;;;;;;;;;;5874653;28;10000015;-74
2020/12/21 15:58:46;;;;;;;92.78;51.55;;;;;;;;;;6244708;28;20049;-74
2020/12/21 16:01:47;;;;;;;84.43;50.13;;;;;;;;;;6243825;28;20072;-74
2020/12/21 16:04:48;;;;;;;84.60;50.90;;;;;;;;;;6239228;28;20183;-73
2020/12/21 16:07:49;;;;;;;89.90;50.08;;;;;;;;;;6235566;28;20045;-74
2020/12/21 16:10:50;;;;;;;80.43;48.75;;;;;;;;;;6233202;28;20061;-73
2020/12/21 16:13:52;;;;;;;84.95;49.33;;;;;;;;;;6247471;28;20045;-75
2020/12/21 16:16:53;;;;;;;84.93;49.38;;;;;;;;;;6227738;28;20623;-74
2020/12/21 16:19:54;;;;;;;90.05;50.63;;;;;;;;;;6234403;28;20051;-74
2020/12/21 16:22:56;;;;;;;80.75;47.13;;;;;;;;;;6233380;28;20099;-74
2020/12/21 16:25:57;;;;;;;85.20;49.83;;;;;;;;;;6229926;28;20136;-74
2020/12/21 16:28:59;;;;;;;85.22;48.38;;;;;;;;;;6225474;28;20041;-75
2020/12/21 16:32:00;;;;;;;84.20;47.92;;;;;;;;;;6227887;28;20116;-75
2020/12/21 16:35:02;;;;;;;88.15;49.88;;;;;;;;;;6227608;28;20136;-74
2020/12/21 16:38:03;;;;;;;84.60;48.92;;;;;;;;;;6232947;28;20797;-76
2020/12/21 16:41:19;;;;;;;84.53;49.88;;;;;;;;;;6228703;28;20571;-75
2020/12/21 16:44:22;;;;;;;81.40;48.90;;;;;;;;;;6256995;28;20045;-75
2020/12/21 16:47:23;;;;;;;87.53;51.53;;;;;;;;;;6245288;28;20124;-75
2020/12/21 16:50:24;;;;;;;89.32;54.25;;;;;;;;;;6262082;28;20154;-74
2020/12/21 16:53:25;;;;;;;86.07;51.15;;;;;;;;;;6264537;28;20160;-73
2020/12/21 16:56:26;;;;;;;84.78;51.75;;;;;;;;;;6254531;28;20536;-73
2020/12/21 16:59:29;;;;;;;85.97;51.15;;;;;;;;;;6242088;28;20525;-73
2020/12/21 17:02:30;;;;;;;85.43;51.47;;;;;;;;;;6247442;28;20046;-75
2020/12/21 17:05:31;;;;;;;92.05;55.10;;;;;;;;;;6255744;28;20049;-74
2020/12/21 17:08:33;;;;;;;89.00;55.50;;;;;;;;;;6255942;28;20056;-74
2020/12/21 17:11:34;;;;;;;88.80;53.35;;;;;;;;;;6245384;28;20060;-74
2020/12/21 17:14:38;;;;;;;85.20;52.15;;;;;;;;;;6247628;28;20045;-74
2020/12/21 17:17:39;;;;;;;83.25;51.45;;;;;;;;;;6251592;28;20081;-74
2020/12/21 17:20:40;;;;;;;80.88;49.53;;;;;;;;;;6250760;28;20057;-74
2020/12/21 17:23:41;;;;;;;78.18;49.35;;;;;;;;;;6252650;28;20072;-74
2020/12/21 17:26:42;;;;;;;81.93;50.70;;;;;;;;;;6243044;28;20463;-73
2020/12/21 17:29:44;;;;;;;77.38;47.75;;;;;;;;;;6245733;28;20060;-73
2020/12/21 17:32:45;;;;;;;86.28;49.90;;;;;;;;;;6252871;28;20057;-75
2020/12/21 17:35:46;;;;;;;85.65;49.45;;;;;;;;;;6247498;28;20102;-73